Time;durP1;ratioP1;P1;durP2;ratioP2;P2;SDS_P1;SDS_P2;PMS_P1;PMS_P2;Temp;Humidity;BMP_temperature;BMP_pressure;BME280_temperature;BME280_humidity;BME280_pressure;Samples;Min_cycle;Max_cycle;Signal;HPM_P1;HPM_P2
2023/11/29 00:02:13;;;;;;;6.50;1.63;;;;;;;;;;4896107;29;20491;-84
2023/11/29 00:04:43;;;;;;;3.83;1.33;;;;;;;;;;4882007;29;20365;-83
2023/11/29 00:07:13;;;;;;;5.40;1.25;;;;;;;;;;4898640;29;20065;-82
2023/11/29 00:09:43;;;;;;;2.90;1.30;;;;;;;;;;4888060;29;20392;-82
2023/11/29 00:12:13;;;;;;;5.78;1.30;;;;;;;;;;4889429;29;20071;-82
2023/11/29 00:14:44;;;;;;;5.72;1.20;;;;;;;;;;4888683;29;20061;-83
2023/11/29 00:17:15;;;;;;;3.08;1.30;;;;;;;;;;4870893;29;20053;-82
2023/11/29 00:19:45;;;;;;;5.97;1.20;;;;;;;;;;4880501;29;20492;-82
2023/11/29 00:22:15;;;;;;;5.03;1.20;;;;;;;;;;4879491;29;20044;-82
2023/11/29 00:24:48;;;;;;;7.70;2.30;;;;;;;;;;4880092;29;20396;-82
2023/11/29 00:27:20;;;;;;;6.00;1.20;;;;;;;;;;4879888;29;20044;-82
2023/11/29 00:29:51;;;;;;;4.10;1.38;;;;;;;;;;4887989;29;20049;-82
2023/11/29 00:32:21;;;;;;;5.75;1.52;;;;;;;;;;4876786;29;20060;-82
2023/11/29 00:34:51;;;;;;;6.47;1.70;;;;;;;;;;4898310;29;20053;-82
2023/11/29 00:37:22;;;;;;;7.22;1.60;;;;;;;;;;4880506;29;20055;-83
2023/11/29 00:39:53;;;;;;;16.30;2.20;;;;;;;;;;4898035;29;20514;-82
2023/11/29 00:42:23;;;;;;;5.15;1.38;;;;;;;;;;4879908;29;20059;-82
2023/11/29 00:44:54;;;;;;;6.15;1.70;;;;;;;;;;4881647;29;20048;-82
2023/11/29 00:47:24;;;;;;;6.18;2.15;;;;;;;;;;4897658;29;20055;-81
2023/11/29 00:49:54;;;;;;;4.68;1.30;;;;;;;;;;4880687;29;20150;-82
2023/11/29 00:52:24;;;;;;;4.97;1.83;;;;;;;;;;4880224;29;20057;-82
2023/11/29 00:54:55;;;;;;;5.05;1.40;;;;;;;;;;4897621;29;20041;-83
2023/11/29 00:57:25;;;;;;;4.35;1.58;;;;;;;;;;4880472;29;20503;-81
2023/11/29 00:59:54;;;;;;;6.38;1.88;;;;;;;;;;4880738;29;20048;-83
2023/11/29 01:02:25;;;;;;;3.95;1.70;;;;;;;;;;4881117;29;20499;-82
2023/11/29 01:04:56;;;;;;;5.90;1.90;;;;;;;;;;4897810;29;20052;-83
2023/11/29 01:07:27;;;;;;;9.00;1.80;;;;;;;;;;4897678;29;20056;-83
2023/11/29 01:09:58;;;;;;;8.77;2.15;;;;;;;;;;4882074;29;20064;-82
2023/11/29 01:12:28;;;;;;;5.85;1.52;;;;;;;;;;4880262;29;20413;-82
2023/11/29 01:15:00;;;;;;;7.78;1.50;;;;;;;;;;4882196;29;20049;-82
2023/11/29 01:17:30;;;;;;;5.75;1.63;;;;;;;;;;4897583;29;20047;-82
2023/11/29 01:20:04;;;;;;;7.70;1.65;;;;;;;;;;4897007;29;20140;-82
2023/11/29 01:22:34;;;;;;;5.55;1.95;;;;;;;;;;4895842;29;20410;-82
2023/11/29 01:25:05;;;;;;;7.63;2.97;;;;;;;;;;4897723;29;20048;-82
2023/11/29 01:27:36;;;;;;;7.53;1.80;;;;;;;;;;4880680;29;20052;-83
2023/11/29 01:30:09;;;;;;;5.25;1.60;;;;;;;;;;4864915;29;20056;-83
2023/11/29 01:32:39;;;;;;;6.50;1.83;;;;;;;;;;4898771;29;20044;-83
2023/11/29 01:35:09;;;;;;;6.90;1.80;;;;;;;;;;4866193;29;20079;-83
2023/11/29 01:37:39;;;;;;;4.82;1.58;;;;;;;;;;4880076;29;20167;-84
2023/11/29 01:40:10;;;;;;;9.18;1.77;;;;;;;;;;4880734;29;20063;-84
2023/11/29 01:42:40;;;;;;;4.70;1.80;;;;;;;;;;4899779;29;20488;-83
2023/11/29 01:45:10;;;;;;;6.88;1.60;;;;;;;;;;4901465;29;20052;-84
2023/11/29 01:47:40;;;;;;;8.27;1.52;;;;;;;;;;4901399;29;20060;-84
2023/11/29 01:50:15;;;;;;;5.78;1.77;;;;;;;;;;4883984;29;20049;-84
2023/11/29 01:52:45;;;;;;;4.30;1.50;;;;;;;;;;4901476;29;20053;-84
2023/11/29 01:55:18;;;;;;;8.70;1.38;;;;;;;;;;4885045;29;20044;-84
2023/11/29 01:57:51;;;;;;;4.13;1.20;;;;;;;;;;4882273;29;20052;-85
2023/11/29 02:00:23;;;;;;;4.75;1.55;;;;;;;;;;4883301;29;20056;-83
2023/11/29 02:02:53;;;;;;;4.03;1.63;;;;;;;;;;4900871;29;20488;-82
2023/11/29 02:05:24;;;;;;;6.00;1.50;;;;;;;;;;4900105;29;20048;-82
2023/11/29 02:07:56;;;;;;;6.50;1.63;;;;;;;;;;4873785;29;20053;-82
2023/11/29 02:10:26;;;;;;;6.13;1.70;;;;;;;;;;4864529;29;20172;-83
2023/11/29 02:12:57;;;;;;;6.72;1.98;;;;;;;;;;4863393;29;20370;-83
2023/11/29 02:15:28;;;;;;;3.85;1.60;;;;;;;;;;4863758;29;20049;-82
2023/11/29 02:17:58;;;;;;;4.63;1.40;;;;;;;;;;4864063;29;20057;-82
2023/11/29 02:20:29;;;;;;;4.05;1.88;;;;;;;;;;4864032;29;20069;-83
2023/11/29 02:23:03;;;;;;;5.53;1.83;;;;;;;;;;4864339;29;20045;-81
2023/11/29 02:25:35;;;;;;;3.70;1.67;;;;;;;;;;4844071;29;20053;-82
2023/11/29 02:28:06;;;;;;;8.93;1.50;;;;;;;;;;4881011;29;20045;-83
2023/11/29 02:30:35;;;;;;;7.18;1.60;;;;;;;;;;4863404;29;20075;-84
2023/11/29 02:33:06;;;;;;;8.35;2.00;;;;;;;;;;4863096;29;20056;-83
2023/11/29 02:35:36;;;;;;;6.88;1.67;;;;;;;;;;4863122;29;20159;-83
2023/11/29 02:38:09;;;;;;;8.18;2.28;;;;;;;;;;4864379;29;20071;-83
2023/11/29 02:40:39;;;;;;;8.93;2.42;;;;;;;;;;4863649;29;20056;-82
2023/11/29 02:43:09;;;;;;;8.02;2.03;;;;;;;;;;4848471;29;20061;-84
2023/11/29 02:45:39;;;;;;;8.50;3.22;;;;;;;;;;4863166;29;20065;-83
2023/11/29 02:48:09;;;;;;;9.23;1.90;;;;;;;;;;4880343;29;20052;-84
2023/11/29 02:50:40;;;;;;;7.10;1.90;;;;;;;;;;4880118;29;20061;-83
2023/11/29 02:53:10;;;;;;;4.35;1.88;;;;;;;;;;4879917;29;20103;-83
2023/11/29 02:55:40;;;;;;;5.93;1.70;;;;;;;;;;4879926;29;20057;-82
2023/11/29 02:58:10;;;;;;;15.00;1.95;;;;;;;;;;4880014;29;20448;-83
2023/11/29 03:00:40;;;;;;;7.53;1.73;;;;;;;;;;4879930;29;20060;-83
2023/11/29 03:03:10;;;;;;;9.15;1.98;;;;;;;;;;4880414;29;20059;-84
2023/11/29 03:05:40;;;;;;;4.40;2.45;;;;;;;;;;4862694;29;20417;-83
2023/11/29 03:08:10;;;;;;;4.20;2.08;;;;;;;;;;4872787;29;20064;-84
2023/11/29 03:10:40;;;;;;;7.68;2.08;;;;;;;;;;4881192;29;20063;-83
2023/11/29 03:13:12;;;;;;;5.70;2.42;;;;;;;;;;4899022;29;20053;-84
2023/11/29 03:15:42;;;;;;;7.63;2.22;;;;;;;;;;4898345;29;20401;-83
2023/11/29 03:18:13;;;;;;;12.20;4.22;;;;;;;;;;4881814;29;20065;-84
2023/11/29 03:20:43;;;;;;;6.60;2.13;;;;;;;;;;4881323;29;20060;-83
2023/11/29 03:23:13;;;;;;;10.23;2.45;;;;;;;;;;4880661;29;20049;-83
2023/11/29 03:25:42;;;;;;;7.53;2.60;;;;;;;;;;4897940;29;20052;-84
2023/11/29 03:28:13;;;;;;;12.32;3.10;;;;;;;;;;4898868;29;20057;-84
2023/11/29 03:30:43;;;;;;;13.63;2.58;;;;;;;;;;4898088;29;20060;-84
2023/11/29 03:33:14;;;;;;;10.55;2.72;;;;;;;;;;4897595;29;20056;-84
2023/11/29 03:35:45;;;;;;;8.75;2.63;;;;;;;;;;4897744;29;20053;-83
2023/11/29 03:38:16;;;;;;;16.08;2.60;;;;;;;;;;4887785;29;20508;-84
2023/11/29 03:40:45;;;;;;;13.35;2.72;;;;;;;;;;4879409;29;20056;-81
2023/11/29 03:43:16;;;;;;;10.95;2.30;;;;;;;;;;4863259;29;20520;-85
2023/11/29 03:45:48;;;;;;;6.43;2.13;;;;;;;;;;4847480;29;20057;-84
2023/11/29 03:48:19;;;;;;;5.40;2.22;;;;;;;;;;4879747;29;20384;-84
2023/11/29 03:50:50;;;;;;;5.30;2.25;;;;;;;;;;4888808;29;20041;-83
2023/11/29 03:53:20;;;;;;;8.45;2.53;;;;;;;;;;4899236;29;20074;-84
2023/11/29 03:55:50;;;;;;;6.10;2.10;;;;;;;;;;4898956;29;20400;-84
2023/11/29 03:58:20;;;;;;;9.60;2.25;;;;;;;;;;4898707;29;20045;-84
2023/11/29 04:00:50;;;;;;;11.35;2.63;;;;;;;;;;4898362;29;20056;-84
2023/11/29 04:03:20;;;;;;;11.75;2.50;;;;;;;;;;4898657;29;20453;-84
2023/11/29 04:05:52;;;;;;;13.50;2.88;;;;;;;;;;4880763;29;20048;-84
2023/11/29 04:08:22;;;;;;;14.43;2.50;;;;;;;;;;4881106;29;20072;-83
2023/11/29 04:10:53;;;;;;;21.00;2.42;;;;;;;;;;4881581;29;20063;-84
2023/11/29 04:13:24;;;;;;;15.95;2.95;;;;;;;;;;4880962;29;20086;-84
2023/11/29 04:15:54;;;;;;;12.25;2.58;;;;;;;;;;4880675;29;20057;-84
2023/11/29 04:18:25;;;;;;;13.05;3.05;;;;;;;;;;4881036;29;20051;-84
2023/11/29 04:20:57;;;;;;;15.27;2.70;;;;;;;;;;4898788;29;20049;-84
2023/11/29 04:23:28;;;;;;;17.20;2.80;;;;;;;;;;4881490;29;20520;-83
2023/11/29 04:25:58;;;;;;;15.73;2.92;;;;;;;;;;4898159;29;20045;-84
2023/11/29 04:28:29;;;;;;;13.20;3.42;;;;;;;;;;4898536;29;20049;-84
2023/11/29 04:30:59;;;;;;;13.60;2.58;;;;;;;;;;4881298;29;20052;-84
2023/11/29 04:33:30;;;;;;;15.95;2.60;;;;;;;;;;4880730;29;20064;-84
2023/11/29 04:36:00;;;;;;;7.32;2.40;;;;;;;;;;4880871;29;20056;-83
2023/11/29 04:38:30;;;;;;;8.40;2.88;;;;;;;;;;4880777;29;20076;-84
2023/11/29 04:41:01;;;;;;;4.53;2.50;;;;;;;;;;4898614;29;20048;-84
2023/11/29 04:43:31;;;;;;;5.90;2.20;;;;;;;;;;4898033;29;20089;-82
2023/11/29 04:46:02;;;;;;;5.28;1.92;;;;;;;;;;4880087;29;20059;-83
2023/11/29 04:48:34;;;;;;;7.57;3.30;;;;;;;;;;4868998;29;20057;-82
2023/11/29 04:51:05;;;;;;;8.00;3.00;;;;;;;;;;4879433;29;20480;-83
2023/11/29 04:53:36;;;;;;;6.32;2.85;;;;;;;;;;4879391;29;20045;-83
2023/11/29 04:56:07;;;;;;;10.32;4.05;;;;;;;;;;4879823;29;20064;-82
2023/11/29 04:58:39;;;;;;;14.38;3.78;;;;;;;;;;4879239;29;20052;-83
2023/11/29 05:01:11;;;;;;;13.60;3.95;;;;;;;;;;4858647;29;20057;-83
2023/11/29 05:03:43;;;;;;;10.32;3.30;;;;;;;;;;4879023;29;20405;-82
2023/11/29 05:06:13;;;;;;;8.63;2.75;;;;;;;;;;4858907;29;20052;-83
2023/11/29 05:08:43;;;;;;;8.73;2.47;;;;;;;;;;4878567;29;20060;-83
2023/11/29 05:11:13;;;;;;;7.63;2.33;;;;;;;;;;4879005;29;20053;-84
2023/11/29 05:13:43;;;;;;;7.22;2.40;;;;;;;;;;4878783;29;20397;-83
2023/11/29 05:16:13;;;;;;;9.35;2.55;;;;;;;;;;4878499;29;20507;-83
2023/11/29 05:18:42;;;;;;;6.63;2.55;;;;;;;;;;4878926;29;20041;-83
2023/11/29 05:21:13;;;;;;;5.22;2.40;;;;;;;;;;4879368;29;20068;-83
2023/11/29 05:23:42;;;;;;;5.18;2.45;;;;;;;;;;4861324;29;20060;-83
2023/11/29 05:26:12;;;;;;;6.45;2.35;;;;;;;;;;4858766;29;20074;-83
2023/11/29 05:28:44;;;;;;;14.40;2.80;;;;;;;;;;4879126;29;20072;-83
2023/11/29 05:31:14;;;;;;;4.85;2.35;;;;;;;;;;4858810;29;20054;-83
2023/11/29 05:33:44;;;;;;;9.07;2.60;;;;;;;;;;4858205;29;20057;-83
2023/11/29 05:36:15;;;;;;;10.63;2.55;;;;;;;;;;4874739;29;20052;-83
2023/11/29 05:38:45;;;;;;;5.07;2.20;;;;;;;;;;4878725;29;20388;-83
2023/11/29 05:41:16;;;;;;;5.55;2.70;;;;;;;;;;4879505;29;20064;-83
2023/11/29 05:43:46;;;;;;;5.07;2.38;;;;;;;;;;4871739;29;20072;-83
2023/11/29 05:46:16;;;;;;;6.13;2.55;;;;;;;;;;4879361;29;20405;-83
2023/11/29 05:48:46;;;;;;;5.03;2.20;;;;;;;;;;4883383;29;20052;-83
2023/11/29 05:51:16;;;;;;;5.50;2.58;;;;;;;;;;4897056;29;20053;-83
2023/11/29 05:53:48;;;;;;;10.40;2.95;;;;;;;;;;4897246;29;20053;-83
2023/11/29 05:56:22;;;;;;;6.90;2.63;;;;;;;;;;4898035;29;20048;-82
2023/11/29 05:58:52;;;;;;;13.15;3.47;;;;;;;;;;4897151;29;20150;-83
2023/11/29 06:01:22;;;;;;;6.68;2.33;;;;;;;;;;4897507;29;20060;-83
2023/11/29 06:03:52;;;;;;;7.25;2.90;;;;;;;;;;4896969;29;20045;-83
2023/11/29 06:06:24;;;;;;;8.88;3.13;;;;;;;;;;4897751;29;20362;-83
2023/11/29 06:08:54;;;;;;;9.30;3.33;;;;;;;;;;4897232;29;20055;-82
2023/11/29 06:11:24;;;;;;;11.93;3.10;;;;;;;;;;4881094;29;20056;-82
2023/11/29 06:13:54;;;;;;;10.05;2.80;;;;;;;;;;4897384;29;20411;-82
2023/11/29 06:16:26;;;;;;;11.80;2.95;;;;;;;;;;4897712;29;20468;-82
2023/11/29 06:18:56;;;;;;;12.35;3.70;;;;;;;;;;4897244;29;20040;-82
2023/11/29 06:21:28;;;;;;;11.75;2.67;;;;;;;;;;4897252;29;20056;-82
2023/11/29 06:23:59;;;;;;;14.38;2.85;;;;;;;;;;4896085;29;20484;-82
2023/11/29 06:26:32;;;;;;;10.93;4.28;;;;;;;;;;4897586;29;20053;-82
2023/11/29 06:29:04;;;;;;;13.93;3.35;;;;;;;;;;4897461;29;20049;-83
2023/11/29 06:31:34;;;;;;;10.35;3.22;;;;;;;;;;4884118;29;20511;-83
2023/11/29 06:34:07;;;;;;;13.40;4.75;;;;;;;;;;4883279;29;20056;-83
2023/11/29 06:36:37;;;;;;;10.52;3.38;;;;;;;;;;4900286;29;20361;-83
2023/11/29 06:39:09;;;;;;;10.27;3.17;;;;;;;;;;4900664;29;20048;-83
2023/11/29 06:41:39;;;;;;;;;;;;;;;;;;4900541;29;20037;-83
2023/11/29 06:44:10;;;;;;;;;;;;;;;;;;4901224;29;19927;-83
2023/11/29 06:46:41;;;;;;;8.30;2.88;;;;;;;;;;4900632;29;20032;-84
2023/11/29 06:49:11;;;;;;;21.30;3.35;;;;;;;;;;4900382;29;20056;-84
2023/11/29 06:51:42;;;;;;;8.50;3.90;;;;;;;;;;4882916;29;20408;-84
2023/11/29 06:54:11;;;;;;;12.88;3.67;;;;;;;;;;4882691;29;20481;-83
2023/11/29 06:56:41;;;;;;;12.52;3.63;;;;;;;;;;4882337;29;20059;-84
2023/11/29 06:59:11;;;;;;;11.80;3.58;;;;;;;;;;4900473;29;20057;-84
2023/11/29 07:01:43;;;;;;;9.20;3.67;;;;;;;;;;4882287;29;20060;-84
2023/11/29 07:04:13;;;;;;;13.50;3.97;;;;;;;;;;4900131;29;20064;-84
2023/11/29 07:06:44;;;;;;;13.38;4.47;;;;;;;;;;4900205;29;20044;-82
2023/11/29 07:09:16;;;;;;;10.95;3.28;;;;;;;;;;4882948;29;20053;-83
2023/11/29 07:11:46;;;;;;;;;;;;;;;;;;4900161;29;20057;-83
2023/11/29 07:14:16;;;;;;;13.02;3.42;;;;;;;;;;4867655;29;19923;-83
2023/11/29 07:16:46;;;;;;;12.27;3.30;;;;;;;;;;4898474;29;20059;-82
2023/11/29 07:19:15;;;;;;;10.20;3.78;;;;;;;;;;4899617;29;20150;-83
2023/11/29 07:21:46;;;;;;;11.25;3.78;;;;;;;;;;4899866;29;20049;-82
2023/11/29 07:24:16;;;;;;;17.42;3.55;;;;;;;;;;4899720;29;20075;-82
2023/11/29 07:26:47;;;;;;;13.60;3.17;;;;;;;;;;4899610;29;20052;-82
2023/11/29 07:29:17;;;;;;;10.43;3.67;;;;;;;;;;4899331;29;20052;-82
2023/11/29 07:31:47;;;;;;;7.97;2.78;;;;;;;;;;4899529;29;20044;-82
2023/11/29 07:34:17;;;;;;;8.82;3.25;;;;;;;;;;4881811;29;20063;-82
2023/11/29 07:36:51;;;;;;;8.32;2.85;;;;;;;;;;4899345;29;20070;-82
2023/11/29 07:39:22;;;;;;;12.60;3.40;;;;;;;;;;4899774;29;20045;-82
2023/11/29 07:41:53;;;;;;;11.38;3.08;;;;;;;;;;4899438;29;20059;-82
2023/11/29 07:44:23;;;;;;;8.38;3.30;;;;;;;;;;4899278;29;20083;-82
2023/11/29 07:46:54;;;;;;;13.73;3.25;;;;;;;;;;4899459;29;20490;-82
2023/11/29 07:49:25;;;;;;;10.38;2.90;;;;;;;;;;4899440;29;20056;-82
2023/11/29 07:51:54;;;;;;;8.68;2.90;;;;;;;;;;4899284;29;20425;-83
2023/11/29 07:54:24;;;;;;;7.88;2.95;;;;;;;;;;4898913;29;20539;-82
2023/11/29 07:56:54;;;;;;;9.35;3.10;;;;;;;;;;4898606;29;20079;-82
2023/11/29 07:59:24;;;;;;;8.50;3.33;;;;;;;;;;4898714;29;20052;-83
2023/11/29 08:01:56;;;;;;;8.60;3.00;;;;;;;;;;4899211;29;20056;-82
2023/11/29 08:04:26;;;;;;;9.18;3.28;;;;;;;;;;4898713;29;20398;-81
2023/11/29 08:06:56;;;;;;;11.27;3.03;;;;;;;;;;4898885;29;20048;-81
2023/11/29 08:09:25;;;;;;;8.43;2.63;;;;;;;;;;4898834;29;20063;-81
2023/11/29 08:11:58;;;;;;;10.18;2.88;;;;;;;;;;4899038;29;20059;-81
2023/11/29 08:14:28;;;;;;;8.00;3.13;;;;;;;;;;4898910;29;20052;-82
2023/11/29 08:16:59;;;;;;;11.23;2.85;;;;;;;;;;4898434;29;20044;-82
2023/11/29 08:19:29;;;;;;;7.10;2.85;;;;;;;;;;4898610;29;20059;-82
2023/11/29 08:22:01;;;;;;;8.00;2.85;;;;;;;;;;4897952;29;20393;-84
2023/11/29 08:24:32;;;;;;;13.18;2.80;;;;;;;;;;4898079;29;20063;-83
2023/11/29 08:27:02;;;;;;;7.00;2.75;;;;;;;;;;4898468;29;20052;-83
2023/11/29 08:29:34;;;;;;;6.88;2.53;;;;;;;;;;4898523;29;20056;-83
2023/11/29 08:32:04;;;;;;;6.97;3.40;;;;;;;;;;4898549;29;20049;-83
2023/11/29 08:34:34;;;;;;;13.45;3.33;;;;;;;;;;4897809;29;20499;-83
2023/11/29 08:37:04;;;;;;;7.00;2.65;;;;;;;;;;4897263;29;20055;-83
2023/11/29 08:39:34;;;;;;;8.73;2.88;;;;;;;;;;4881843;29;20507;-83
2023/11/29 08:42:05;;;;;;;8.30;2.80;;;;;;;;;;4882066;29;20059;-83
2023/11/29 08:44:36;;;;;;;13.82;2.97;;;;;;;;;;4897066;29;20060;-83
2023/11/29 08:47:05;;;;;;;6.88;3.05;;;;;;;;;;4898075;29;20040;-83
2023/11/29 08:49:35;;;;;;;8.85;2.90;;;;;;;;;;4896970;29;20049;-82
2023/11/29 08:52:06;;;;;;;8.43;2.60;;;;;;;;;;4897555;29;20049;-82
2023/11/29 08:54:37;;;;;;;6.22;2.85;;;;;;;;;;4897769;29;20488;-82
2023/11/29 08:57:07;;;;;;;5.25;2.42;;;;;;;;;;4897516;29;20056;-83
2023/11/29 08:59:38;;;;;;;7.13;2.55;;;;;;;;;;4897866;29;20496;-83
2023/11/29 09:02:08;;;;;;;12.32;3.28;;;;;;;;;;4895828;29;20052;-83
2023/11/29 09:04:39;;;;;;;9.90;3.15;;;;;;;;;;4879616;29;20053;-82
2023/11/29 09:07:09;;;;;;;7.38;2.97;;;;;;;;;;4879243;29;20049;-82
2023/11/29 09:09:44;;;;;;;5.53;3.40;;;;;;;;;;4879373;29;20056;-82
2023/11/29 09:12:17;;;;;;;8.40;3.65;;;;;;;;;;4879192;29;20049;-83
2023/11/29 09:14:48;;;;;;;9.27;3.60;;;;;;;;;;4878991;29;20128;-83
2023/11/29 09:17:20;;;;;;;8.30;3.25;;;;;;;;;;4861799;29;20544;-82
2023/11/29 09:19:53;;;;;;;14.18;3.58;;;;;;;;;;4879521;29;20049;-82
2023/11/29 09:22:23;;;;;;;8.73;3.47;;;;;;;;;;4879156;29;20041;-83
2023/11/29 09:24:54;;;;;;;6.68;3.40;;;;;;;;;;4864697;29;20068;-83
2023/11/29 09:27:24;;;;;;;7.97;3.08;;;;;;;;;;4881821;29;20036;-84
2023/11/29 09:29:55;;;;;;;6.28;3.25;;;;;;;;;;4880752;29;20041;-83
2023/11/29 09:32:25;;;;;;;10.48;3.28;;;;;;;;;;4883096;29;20041;-84
2023/11/29 09:34:55;;;;;;;9.95;3.10;;;;;;;;;;4879435;29;20068;-83
2023/11/29 09:37:25;;;;;;;7.75;3.30;;;;;;;;;;4864036;29;20060;-83
2023/11/29 09:39:55;;;;;;;7.72;3.22;;;;;;;;;;4882381;29;20404;-83
2023/11/29 09:42:28;;;;;;;8.63;2.85;;;;;;;;;;4878939;29;20045;-81
2023/11/29 09:45:01;;;;;;;7.35;3.17;;;;;;;;;;4879926;29;20041;-84
2023/11/29 09:47:32;;;;;;;8.05;2.97;;;;;;;;;;4879377;29;20049;-83
2023/11/29 09:50:02;;;;;;;6.40;2.92;;;;;;;;;;4879743;29;20049;-83
2023/11/29 09:52:32;;;;;;;5.97;2.45;;;;;;;;;;4879576;29;20056;-83
2023/11/29 09:55:05;;;;;;;4.93;2.45;;;;;;;;;;4863188;29;20041;-83
2023/11/29 09:57:36;;;;;;;6.97;2.75;;;;;;;;;;4879376;29;20052;-82
2023/11/29 10:00:10;;;;;;;7.63;3.15;;;;;;;;;;4878623;29;20049;-81
2023/11/29 10:02:40;;;;;;;8.98;3.72;;;;;;;;;;4863633;29;20401;-82
2023/11/29 10:05:11;;;;;;;4.97;2.75;;;;;;;;;;4865849;29;20420;-82
2023/11/29 10:07:42;;;;;;;6.03;2.35;;;;;;;;;;4880590;29;20071;-82
2023/11/29 10:10:13;;;;;;;6.68;3.00;;;;;;;;;;4862349;29;20056;-82
2023/11/29 10:12:44;;;;;;;8.10;2.95;;;;;;;;;;4880307;29;20060;-82
2023/11/29 10:15:14;;;;;;;6.97;2.25;;;;;;;;;;4881792;29;20053;-82
2023/11/29 10:17:47;;;;;;;7.78;2.63;;;;;;;;;;4888950;29;20063;-82
2023/11/29 10:20:17;;;;;;;4.57;2.65;;;;;;;;;;4881997;29;20049;-81
2023/11/29 10:22:50;;;;;;;8.93;1.98;;;;;;;;;;4899670;29;20500;-82
2023/11/29 10:25:20;;;;;;;3.85;2.05;;;;;;;;;;4892804;29;20048;-82
